createdAt,value
2022-10-19T00:01:17.944Z,7.77
2022-10-19T00:03:46.866Z,7.97
2022-10-19T00:06:16.972Z,9.33
2022-10-19T00:08:44.074Z,8.30
2022-10-19T00:11:11.123Z,7.10
2022-10-19T00:13:38.734Z,9.00
2022-10-19T00:16:13.417Z,10.13
2022-10-19T00:18:40.656Z,7.27
2022-10-19T00:21:08.764Z,8.80
2022-10-19T00:23:35.476Z,8.33
2022-10-19T00:26:02.415Z,9.73
2022-10-19T00:28:28.995Z,7.70
2022-10-19T00:30:55.479Z,8.43
2022-10-19T00:33:22.598Z,7.97
2022-10-19T00:35:50.283Z,6.67
2022-10-19T00:38:18.124Z,6.60
2022-10-19T00:40:45.088Z,6.90
2022-10-19T00:43:16.469Z,8.17
2022-10-19T00:45:43.004Z,8.50
2022-10-19T00:48:11.568Z,9.83
2022-10-19T00:50:38.791Z,8.43
2022-10-19T00:53:05.462Z,8.50
2022-10-19T00:55:32.751Z,9.00
2022-10-19T00:57:59.355Z,7.17
2022-10-19T01:00:25.863Z,8.67
2022-10-19T01:02:52.319Z,7.67
2022-10-19T01:05:18.971Z,8.23
2022-10-19T01:07:45.425Z,8.50
2022-10-19T01:10:12.153Z,10.00
2022-10-19T01:13:04.059Z,8.90
2022-10-19T01:15:33.475Z,7.17
2022-10-19T01:18:29.290Z,7.50
2022-10-19T01:21:01.504Z,7.30
2022-10-19T01:23:43.317Z,7.50
2022-10-19T01:26:28.216Z,7.80
2022-10-19T01:29:19.163Z,7.87
2022-10-19T01:31:56.720Z,12.90
2022-10-19T01:34:30.367Z,7.90
2022-10-19T01:37:03.343Z,7.27
2022-10-19T01:39:45.290Z,8.10
2022-10-19T01:42:34.121Z,7.70
2022-10-19T01:45:27.434Z,7.67
2022-10-19T01:48:03.243Z,5.90
2022-10-19T01:50:52.400Z,6.97
2022-10-19T01:53:20.052Z,8.20
2022-10-19T01:55:50.503Z,8.30
2022-10-19T01:58:20.279Z,9.20
2022-10-19T02:00:48.677Z,8.30
2022-10-19T02:03:15.921Z,8.13
2022-10-19T02:05:44.346Z,6.87
2022-10-19T02:08:18.059Z,6.47
2022-10-19T02:10:45.407Z,6.53
2022-10-19T02:13:14.187Z,6.50
2022-10-19T02:15:45.183Z,6.83
2022-10-19T02:18:14.143Z,6.43
2022-10-19T02:20:40.557Z,7.20
2022-10-19T02:23:07.503Z,6.77
2022-10-19T02:25:34.638Z,6.63
2022-10-19T02:28:02.192Z,7.37
2022-10-19T02:30:28.840Z,8.07
2022-10-19T02:32:55.330Z,6.90
2022-10-19T02:35:22.972Z,6.63
2022-10-19T02:37:49.502Z,6.87
2022-10-19T02:40:16.099Z,6.90
2022-10-19T02:42:47.629Z,7.30
2022-10-19T02:45:21.830Z,6.40
2022-10-19T02:47:55.263Z,6.50
2022-10-19T02:50:22.416Z,6.20
2022-10-19T02:52:48.940Z,6.53
2022-10-19T02:55:15.424Z,5.97
2022-10-19T02:57:41.898Z,6.20
2022-10-19T03:00:10.279Z,6.70
2022-10-19T03:02:36.847Z,7.93
2022-10-19T03:05:04.276Z,7.90
2022-10-19T03:07:30.911Z,7.47
2022-10-19T03:09:57.588Z,5.70
2022-10-19T03:12:24.123Z,6.00
2022-10-19T03:14:50.617Z,7.93
2022-10-19T03:17:17.122Z,8.47
2022-10-19T03:19:43.667Z,6.83
2022-10-19T03:22:10.246Z,6.47
2022-10-19T03:24:36.694Z,7.00
2022-10-19T03:27:03.166Z,6.50
2022-10-19T03:29:29.705Z,7.70
2022-10-19T03:31:56.246Z,7.70
2022-10-19T03:34:22.942Z,7.23
2022-10-19T03:36:49.495Z,7.20
2022-10-19T03:39:16.679Z,6.80
2022-10-19T03:41:43.362Z,6.87
2022-10-19T03:44:10.826Z,7.30
2022-10-19T03:46:37.977Z,8.30
2022-10-19T03:49:04.751Z,10.73
2022-10-19T03:51:32.090Z,8.00
2022-10-19T03:54:00.774Z,7.60
2022-10-19T03:56:28.878Z,7.73
2022-10-19T03:58:57.030Z,6.73
2022-10-19T04:01:26.064Z,6.73
2022-10-19T04:03:57.579Z,7.83
2022-10-19T04:06:29.682Z,8.73
2022-10-19T04:08:56.477Z,7.17
2022-10-19T04:11:24.943Z,7.00
2022-10-19T04:13:52.749Z,9.03
2022-10-19T04:16:20.628Z,8.90
2022-10-19T04:18:47.715Z,8.23
2022-10-19T04:21:28.828Z,7.93
2022-10-19T04:24:13.062Z,8.17
2022-10-19T04:26:45.102Z,8.10
2022-10-19T04:29:11.798Z,7.40
2022-10-19T04:31:39.141Z,7.90
2022-10-19T04:34:06.175Z,8.63
2022-10-19T04:36:32.771Z,7.60
2022-10-19T04:38:59.339Z,8.40
2022-10-19T04:41:25.959Z,7.03
2022-10-19T04:43:57.957Z,8.83
2022-10-19T04:46:25.282Z,9.77
2022-10-19T04:48:52.094Z,14.23
2022-10-19T04:51:21.600Z,13.93
2022-10-19T04:53:48.429Z,11.60
2022-10-19T04:56:18.250Z,11.30
2022-10-19T04:58:45.085Z,10.83
2022-10-19T05:01:16.183Z,9.33
2022-10-19T05:03:43.063Z,9.80
2022-10-19T05:06:10.613Z,8.47
2022-10-19T05:08:37.749Z,10.47
2022-10-19T05:11:09.630Z,9.87
2022-10-19T05:13:36.678Z,9.97
2022-10-19T05:16:05.331Z,8.70
2022-10-19T05:18:32.160Z,7.30
2022-10-19T05:21:06.036Z,7.23
2022-10-19T05:26:07.511Z,10.00
2022-10-19T05:28:34.606Z,9.00
2022-10-19T05:31:09.386Z,9.57
2022-10-19T05:33:36.313Z,9.20
2022-10-19T05:36:25.336Z,9.70
2022-10-19T05:38:53.096Z,11.57
2022-10-19T05:41:20.808Z,9.13
2022-10-19T05:43:47.833Z,8.90
2022-10-19T05:46:18.998Z,9.70
2022-10-19T05:48:46.741Z,8.50
2022-10-19T05:51:15.299Z,10.00
2022-10-19T05:53:42.171Z,6.90
2022-10-19T05:56:11.455Z,9.40
2022-10-19T05:58:38.066Z,8.30
2022-10-19T06:01:04.876Z,9.10
2022-10-19T06:03:31.413Z,9.63
2022-10-19T06:05:58.223Z,8.77
2022-10-19T06:08:25.190Z,7.67
2022-10-19T06:10:51.984Z,9.33
2022-10-19T06:13:19.354Z,8.90
2022-10-19T06:15:50.603Z,9.80
2022-10-19T06:18:17.050Z,9.93
2022-10-19T06:20:43.467Z,9.67
2022-10-19T06:23:10.124Z,9.13
2022-10-19T06:25:36.919Z,7.57
2022-10-19T06:28:03.983Z,8.60
2022-10-19T06:30:30.527Z,10.20
2022-10-19T06:32:58.883Z,10.90
2022-10-19T06:35:25.513Z,9.60
2022-10-19T06:37:52.170Z,10.87
2022-10-19T06:40:18.624Z,10.53
2022-10-19T06:42:45.196Z,11.20
2022-10-19T06:45:11.752Z,10.50
2022-10-19T06:47:38.632Z,8.60
2022-10-19T06:50:06.406Z,9.17
2022-10-19T06:52:34.435Z,9.77
2022-10-19T06:55:01.497Z,11.17
2022-10-19T06:57:28.911Z,11.53
2022-10-19T06:59:55.614Z,8.83
2022-10-19T07:02:22.587Z,10.40
2022-10-19T07:04:49.082Z,10.60
2022-10-19T07:07:15.612Z,9.23
2022-10-19T07:09:42.050Z,7.60
2022-10-19T07:12:10.776Z,10.37
2022-10-19T07:14:39.660Z,9.47
2022-10-19T07:17:11.730Z,9.53
2022-10-19T07:19:38.576Z,8.93
2022-10-19T07:22:05.344Z,10.80
2022-10-19T07:24:31.788Z,8.77
2022-10-19T07:26:58.387Z,8.90
2022-10-19T07:29:24.843Z,9.10
2022-10-19T07:31:51.396Z,10.10
2022-10-19T07:34:17.957Z,10.50
2022-10-19T07:36:47.866Z,11.27
2022-10-19T07:39:16.891Z,11.40
2022-10-19T07:41:44.273Z,9.70
2022-10-19T07:44:13.401Z,9.43
2022-10-19T07:46:42.305Z,9.70
2022-10-19T07:49:11.151Z,8.80
2022-10-19T07:51:38.389Z,9.80
2022-10-19T07:54:05.119Z,8.80
2022-10-19T07:56:32.290Z,8.33
2022-10-19T07:58:59.989Z,8.20
2022-10-19T08:01:29.519Z,10.20
2022-10-19T08:04:43.311Z,8.90
2022-10-19T08:06:44.299Z,10.67
2022-10-19T08:09:15.597Z,9.30
2022-10-19T08:11:49.571Z,9.00
2022-10-19T08:14:16.567Z,8.43
2022-10-19T08:16:44.885Z,8.63
2022-10-19T08:19:13.749Z,9.30
2022-10-19T08:21:42.923Z,9.00
2022-10-19T08:24:10.159Z,9.10
2022-10-19T08:26:38.335Z,7.90
2022-10-19T08:29:07.606Z,8.70
2022-10-19T08:31:34.306Z,10.73
2022-10-19T08:34:00.965Z,8.10
2022-10-19T08:36:31.217Z,7.93
2022-10-19T08:38:58.316Z,10.57
2022-10-19T08:41:33.731Z,10.60
2022-10-19T08:44:19.045Z,9.90
2022-10-19T08:47:13.871Z,10.60
2022-10-19T08:49:40.958Z,9.40
2022-10-19T08:52:13.106Z,14.17
2022-10-19T08:54:54.289Z,13.53
2022-10-19T08:57:45.740Z,12.57
2022-10-19T09:00:42.800Z,12.97
2022-10-19T09:03:27.126Z,14.40
2022-10-19T09:06:32.630Z,18.07
2022-10-19T09:08:59.397Z,15.30
2022-10-19T09:11:30.973Z,15.00
2022-10-19T09:14:25.444Z,14.20
2022-10-19T09:16:51.984Z,13.70
2022-10-19T09:19:26.163Z,15.03
2022-10-19T09:21:58.541Z,15.90
2022-10-19T09:24:39.185Z,14.80
2022-10-19T09:27:06.042Z,16.23
2022-10-19T09:29:40.549Z,14.70
2022-10-19T09:32:30.444Z,14.63
2022-10-19T09:34:59.182Z,17.67
2022-10-19T09:37:26.808Z,16.27
2022-10-19T09:39:55.655Z,16.60
2022-10-19T09:42:33.197Z,16.77
2022-10-19T09:45:02.297Z,17.80
2022-10-19T09:47:33.001Z,16.87
2022-10-19T09:50:29.875Z,18.13
2022-10-19T09:52:58.375Z,18.07
2022-10-19T09:55:43.176Z,17.23
2022-10-19T09:58:18.227Z,18.00
2022-10-19T10:00:45.877Z,17.63
2022-10-19T10:03:25.943Z,19.00
2022-10-19T10:05:53.198Z,18.47
2022-10-19T10:08:25.777Z,19.37
2022-10-19T10:11:08.480Z,19.77
2022-10-19T10:13:43.306Z,19.90
2022-10-19T10:16:16.980Z,20.03
2022-10-19T10:19:03.189Z,20.20
2022-10-19T10:21:36.460Z,21.50
2022-10-19T10:24:17.073Z,21.17
2022-10-19T10:27:03.884Z,22.87
2022-10-19T10:29:35.741Z,20.37
2022-10-19T10:32:08.801Z,18.57
2022-10-19T10:34:54.840Z,20.50
2022-10-19T10:37:30.045Z,19.37
2022-10-19T10:40:00.417Z,20.20
2022-10-19T10:42:35.108Z,20.73
2022-10-19T10:45:02.160Z,20.30
2022-10-19T10:47:29.358Z,19.37
2022-10-19T10:50:02.921Z,18.10
2022-10-19T10:52:33.599Z,17.23
2022-10-19T10:55:09.529Z,17.83
2022-10-19T10:57:39.818Z,17.70
2022-10-19T11:00:11.042Z,17.67
2022-10-19T11:02:37.493Z,17.50
2022-10-19T11:05:13.486Z,17.03
2022-10-19T11:07:43.908Z,17.60
2022-10-19T11:10:24.925Z,16.70
2022-10-19T11:13:15.756Z,17.00
2022-10-19T11:15:48.659Z,18.20
2022-10-19T11:18:42.366Z,17.90
2022-10-19T11:21:12.055Z,19.90
2022-10-19T11:24:06.468Z,20.30
2022-10-19T11:26:53.353Z,19.90
2022-10-19T11:29:43.808Z,18.37
2022-10-19T11:32:23.603Z,19.60
2022-10-19T11:35:13.223Z,17.97
2022-10-19T11:37:49.950Z,20.73
2022-10-19T11:40:32.045Z,17.00
2022-10-19T11:43:11.973Z,18.10
2022-10-19T11:45:52.115Z,18.10
2022-10-19T11:48:54.902Z,17.37
2022-10-19T11:51:32.610Z,15.40
2022-10-19T11:54:36.719Z,14.93
2022-10-19T11:57:11.594Z,15.90
2022-10-19T11:59:41.149Z,15.77
2022-10-19T12:02:19.072Z,13.63
2022-10-19T12:04:56.113Z,13.53
2022-10-19T12:07:28.519Z,15.20
2022-10-19T12:10:13.120Z,13.17
2022-10-19T12:12:52.292Z,13.70
2022-10-19T12:15:31.170Z,15.20
2022-10-19T12:18:04.330Z,14.17
2022-10-19T12:20:52.809Z,13.73
2022-10-19T12:23:22.183Z,13.57
2022-10-19T12:25:50.018Z,13.43
2022-10-19T12:28:27.187Z,14.40
2022-10-19T12:30:53.831Z,14.73
2022-10-19T12:33:25.299Z,14.13
2022-10-19T12:36:16.626Z,14.13
2022-10-19T12:39:10.578Z,13.80
2022-10-19T12:42:10.756Z,15.33
2022-10-19T12:45:08.164Z,14.63
2022-10-19T12:47:35.046Z,13.67
2022-10-19T12:50:01.789Z,15.10
2022-10-19T12:52:48.698Z,15.63
2022-10-19T12:55:15.085Z,12.70
2022-10-19T12:57:43.687Z,12.70
2022-10-19T13:00:22.914Z,12.57
2022-10-19T13:02:58.444Z,10.43
2022-10-19T13:05:26.530Z,11.40
2022-10-19T13:07:53.389Z,12.40
2022-10-19T13:10:25.275Z,11.03
2022-10-19T13:12:52.105Z,11.60
2022-10-19T13:15:33.807Z,11.57
2022-10-19T13:18:01.790Z,11.13
2022-10-19T13:20:28.528Z,13.80
2022-10-19T13:23:00.821Z,12.00
2022-10-19T13:25:42.833Z,12.57
2022-10-19T13:28:15.181Z,12.40
2022-10-19T13:30:44.490Z,12.10
2022-10-19T13:33:28.442Z,11.03
2022-10-19T13:36:00.821Z,10.23
2022-10-19T13:38:47.742Z,11.10
2022-10-19T13:41:47.293Z,10.90
2022-10-19T13:44:20.386Z,9.90
2022-10-19T13:46:52.922Z,10.93
2022-10-19T13:49:43.838Z,10.67
2022-10-19T13:52:32.099Z,9.80
2022-10-19T13:55:17.494Z,10.60
2022-10-19T13:58:05.774Z,9.73
2022-10-19T14:00:45.168Z,10.47
2022-10-19T14:03:31.126Z,9.97
2022-10-19T14:06:27.632Z,13.37
2022-10-19T14:09:16.758Z,11.10
2022-10-19T14:11:45.884Z,9.47
2022-10-19T14:14:19.020Z,7.93
2022-10-19T14:16:59.723Z,11.27
2022-10-19T14:19:51.457Z,16.03
2022-10-19T14:22:34.081Z,22.33
2022-10-19T14:25:24.753Z,9.40
2022-10-19T14:27:58.807Z,9.10
2022-10-19T14:30:28.125Z,12.63
2022-10-19T14:32:59.388Z,18.40
2022-10-19T14:35:31.879Z,9.73
2022-10-19T14:37:58.799Z,43.20
2022-10-19T14:40:31.067Z,27.30
2022-10-19T14:42:59.151Z,32.80
2022-10-19T14:45:31.114Z,21.77
2022-10-19T14:48:15.411Z,10.20
2022-10-19T14:50:43.466Z,9.57
2022-10-19T14:53:34.587Z,8.83
2022-10-19T14:56:08.929Z,8.70
2022-10-19T14:58:58.510Z,7.00
2022-10-19T15:01:25.437Z,29.53
2022-10-19T15:03:52.401Z,32.03
2022-10-19T15:06:25.873Z,14.50
2022-10-19T15:08:55.934Z,10.67
2022-10-19T15:11:26.821Z,8.10
2022-10-19T15:14:02.132Z,7.90
2022-10-19T15:16:48.881Z,9.13
2022-10-19T15:19:23.787Z,8.57
2022-10-19T15:22:09.297Z,7.40
2022-10-19T15:24:36.752Z,7.27
2022-10-19T15:27:20.862Z,7.30
2022-10-19T15:30:23.415Z,7.50
2022-10-19T15:32:57.503Z,9.80
2022-10-19T15:35:33.069Z,15.60
2022-10-19T15:38:04.022Z,11.43
2022-10-19T15:40:34.537Z,10.87
2022-10-19T15:43:01.092Z,9.00
2022-10-19T15:45:31.249Z,9.10
2022-10-19T15:48:09.791Z,7.87
2022-10-19T15:50:40.163Z,9.20
2022-10-19T15:53:06.700Z,8.90
2022-10-19T15:55:33.229Z,8.60
2022-10-19T15:58:00.348Z,10.67
2022-10-19T16:00:27.729Z,11.23
2022-10-19T16:02:54.218Z,9.70
2022-10-19T16:05:20.688Z,8.60
2022-10-19T16:07:47.594Z,7.77
2022-10-19T16:10:19.808Z,8.20
2022-10-19T16:12:46.432Z,10.37
2022-10-19T16:15:23.383Z,10.17
2022-10-19T16:17:55.924Z,8.37
2022-10-19T16:20:23.107Z,7.80
2022-10-19T16:22:49.717Z,14.00
2022-10-19T16:25:16.367Z,18.63
2022-10-19T16:27:42.872Z,12.50
2022-10-19T16:30:09.944Z,10.80
2022-10-19T16:32:36.758Z,10.90
2022-10-19T16:35:03.545Z,10.67
2022-10-19T16:37:30.309Z,12.37
2022-10-19T16:39:56.765Z,11.73
2022-10-19T16:42:25.645Z,14.60
2022-10-19T16:44:55.232Z,15.47
2022-10-19T16:47:21.950Z,12.30
2022-10-19T16:49:48.517Z,10.67
2022-10-19T16:52:15.179Z,9.20
2022-10-19T16:54:41.748Z,8.80
2022-10-19T16:57:09.996Z,11.73
2022-10-19T16:59:36.624Z,9.10
2022-10-19T17:02:03.199Z,8.13
2022-10-19T17:04:29.688Z,7.73
2022-10-19T17:06:57.116Z,8.60
2022-10-19T17:12:12.064Z,9.33
2022-10-19T17:14:40.201Z,10.87
2022-10-19T17:17:07.430Z,14.00
2022-10-19T17:19:34.155Z,11.90
2022-10-19T17:22:02.171Z,9.90
2022-10-19T17:24:28.937Z,12.23
2022-10-19T17:26:55.458Z,13.30
2022-10-19T17:29:22.535Z,14.17
2022-10-19T17:31:49.658Z,13.70
2022-10-19T17:34:16.804Z,10.07
2022-10-19T17:36:44.945Z,10.17
2022-10-19T17:39:17.924Z,8.70
2022-10-19T17:41:45.960Z,8.60
2022-10-19T17:44:14.335Z,7.70
2022-10-19T17:46:40.972Z,7.73
2022-10-19T17:49:07.615Z,6.90
2022-10-19T17:51:35.440Z,8.63
2022-10-19T17:54:04.559Z,8.20
2022-10-19T17:56:31.641Z,8.17
2022-10-19T17:58:58.716Z,8.53
2022-10-19T18:01:25.683Z,9.30
2022-10-19T18:03:52.448Z,10.00
2022-10-19T18:06:24.358Z,12.03
2022-10-19T18:08:52.773Z,11.33
2022-10-19T18:11:20.612Z,10.53
2022-10-19T18:13:48.379Z,9.90
2022-10-19T18:16:17.383Z,11.67
2022-10-19T18:18:48.488Z,10.20
2022-10-19T18:21:16.675Z,9.70
2022-10-19T18:23:43.126Z,8.67
2022-10-19T18:26:15.766Z,8.13
2022-10-19T18:28:42.311Z,8.87
2022-10-19T18:31:08.733Z,8.80
2022-10-19T18:33:35.491Z,8.67
2022-10-19T18:36:02.166Z,9.30
2022-10-19T18:38:28.755Z,10.37
2022-10-19T18:40:56.171Z,9.50
2022-10-19T18:43:23.324Z,11.30
2022-10-19T18:45:54.037Z,11.37
2022-10-19T18:48:20.993Z,12.53
2022-10-19T18:50:47.761Z,12.20
2022-10-19T18:53:14.473Z,11.10
2022-10-19T18:55:42.009Z,11.77
2022-10-19T18:58:09.025Z,11.60
2022-10-19T19:00:35.662Z,12.23
2022-10-19T19:03:02.169Z,11.03
2022-10-19T19:05:29.025Z,11.60
2022-10-19T19:07:56.014Z,11.70
2022-10-19T19:10:22.521Z,11.60
2022-10-19T19:12:50.333Z,11.63
2022-10-19T19:15:17.440Z,11.10
2022-10-19T19:17:44.052Z,13.23
2022-10-19T19:20:10.645Z,12.93
2022-10-19T19:22:37.329Z,12.43
2022-10-19T19:25:04.473Z,11.97
2022-10-19T19:27:32.076Z,13.17
2022-10-19T19:30:00.636Z,12.47
2022-10-19T19:32:27.601Z,11.03
2022-10-19T19:34:54.940Z,10.20
2022-10-19T19:37:21.553Z,11.40
2022-10-19T19:39:47.977Z,9.30
2022-10-19T19:42:14.548Z,13.27
2022-10-19T19:44:41.065Z,11.77
2022-10-19T19:47:08.429Z,10.67
2022-10-19T19:49:34.882Z,11.77
2022-10-19T19:52:01.729Z,11.20
2022-10-19T19:54:28.421Z,11.13
2022-10-19T19:56:55.030Z,10.60
2022-10-19T19:59:21.662Z,10.17
2022-10-19T20:01:48.356Z,10.47
2022-10-19T20:04:14.972Z,9.30
2022-10-19T20:06:42.911Z,12.40
2022-10-19T20:09:10.622Z,14.13
2022-10-19T20:11:42.107Z,16.10
2022-10-19T20:14:09.338Z,12.80
2022-10-19T20:16:37.068Z,12.60
2022-10-19T20:19:11.708Z,11.30
2022-10-19T20:21:38.548Z,10.43
2022-10-19T20:24:05.221Z,12.47
2022-10-19T20:26:31.870Z,11.80
2022-10-19T20:28:59.291Z,12.77
2022-10-19T20:31:26.057Z,13.13
2022-10-19T20:33:52.549Z,11.17
2022-10-19T20:36:24.157Z,10.50
2022-10-19T20:38:52.670Z,10.33
2022-10-19T20:41:20.871Z,10.27
2022-10-19T20:43:47.508Z,11.00
2022-10-19T20:46:19.293Z,12.30
2022-10-19T20:48:45.820Z,11.40
2022-10-19T20:51:18.000Z,12.70
2022-10-19T20:53:47.387Z,11.00
2022-10-19T20:56:16.114Z,10.67
2022-10-19T20:58:43.700Z,12.80
2022-10-19T21:01:13.498Z,10.40
2022-10-19T21:03:40.610Z,9.70
2022-10-19T21:06:08.499Z,11.60
2022-10-19T21:08:35.879Z,11.70
2022-10-19T21:11:12.169Z,12.40
2022-10-19T21:13:38.729Z,11.53
2022-10-19T21:16:16.778Z,14.50
2022-10-19T21:18:44.318Z,12.07
2022-10-19T21:21:12.639Z,11.60
2022-10-19T21:23:39.444Z,9.67
2022-10-19T21:26:06.123Z,14.70
2022-10-19T21:28:32.651Z,11.20
2022-10-19T21:31:06.824Z,11.70
2022-10-19T21:33:33.395Z,13.40
2022-10-19T21:36:05.082Z,11.83
2022-10-19T21:38:31.760Z,10.60
2022-10-19T21:40:59.777Z,12.13
2022-10-19T21:43:26.547Z,13.27
2022-10-19T21:45:53.190Z,12.37
2022-10-19T21:48:19.928Z,10.90
2022-10-19T21:50:46.611Z,11.00
2022-10-19T21:53:13.275Z,9.93
2022-10-19T21:55:39.764Z,8.47
2022-10-19T21:58:06.314Z,9.23
2022-10-19T22:00:32.759Z,8.27
2022-10-19T22:02:59.266Z,9.50
2022-10-19T22:05:25.928Z,8.90
2022-10-19T22:07:52.406Z,10.00
2022-10-19T22:10:18.902Z,8.87
2022-10-19T22:12:47.629Z,10.87
2022-10-19T22:15:14.134Z,12.37
2022-10-19T22:17:40.751Z,11.90
2022-10-19T22:20:08.000Z,12.63
2022-10-19T22:22:34.638Z,11.17
2022-10-19T22:25:01.246Z,10.40
2022-10-19T22:27:27.699Z,10.53
2022-10-19T22:30:12.391Z,8.33
2022-10-19T22:32:39.303Z,10.30
2022-10-19T22:35:06.146Z,8.53
2022-10-19T22:37:34.444Z,9.13
2022-10-19T22:40:00.928Z,9.90
2022-10-19T22:42:27.433Z,9.57
2022-10-19T22:44:53.952Z,10.10
2022-10-19T22:47:20.452Z,10.80
2022-10-19T22:49:46.888Z,10.10
2022-10-19T22:52:13.470Z,10.63
2022-10-19T22:54:39.993Z,9.53
2022-10-19T22:57:06.468Z,10.27
2022-10-19T22:59:33.351Z,10.97
2022-10-19T23:01:59.974Z,9.50
2022-10-19T23:04:26.791Z,8.87
2022-10-19T23:06:53.340Z,9.00
2022-10-19T23:09:19.879Z,9.27
2022-10-19T23:11:46.693Z,9.87
2022-10-19T23:14:13.267Z,10.10
2022-10-19T23:16:39.939Z,8.90
2022-10-19T23:19:06.424Z,7.47
2022-10-19T23:21:33.172Z,8.63
2022-10-19T23:23:59.818Z,8.13
2022-10-19T23:26:26.673Z,8.70
2022-10-19T23:28:53.127Z,10.07
2022-10-19T23:31:26.504Z,8.40
2022-10-19T23:33:54.239Z,8.50
2022-10-19T23:36:23.052Z,8.40
2022-10-19T23:38:50.416Z,10.83
2022-10-19T23:41:17.997Z,8.70
2022-10-19T23:43:44.451Z,9.77
2022-10-19T23:46:11.113Z,8.63
2022-10-19T23:48:37.728Z,9.33
2022-10-19T23:51:09.499Z,7.70
2022-10-19T23:53:40.949Z,8.93
2022-10-19T23:56:11.982Z,8.00
2022-10-19T23:58:38.704Z,6.50
